Time;durP1;ratioP1;P1;durP2;ratioP2;P2;SDS_P1;SDS_P2;PMS_P1;PMS_P2;Temp;Humidity;BMP_temperature;BMP_pressure;BME280_temperature;BME280_humidity;BME280_pressure;Samples;Min_cycle;Max_cycle;Signal;HPM_P1;HPM_P2
2021/08/09 00:00:26;;;;;;;8.55;5.75;;;;;;;19.92;60.99;100647.05;1722672;81;21016;-67
2021/08/09 00:02:53;;;;;;;7.60;5.65;;;;;;;19.86;61.06;100644.59;1665193;84;22870;-67
2021/08/09 00:05:19;;;;;;;7.58;5.22;;;;;;;19.80;61.38;100643.47;1728286;82;21107;-67
2021/08/09 00:07:47;;;;;;;8.53;5.87;;;;;;;19.76;61.47;100640.81;1663698;84;21079;-66
2021/08/09 00:11:58;;;;;;;7.90;5.35;;;;;;;19.73;61.52;100640.31;1787477;77;23358;-64
2021/08/09 00:14:24;;;;;;;13.38;6.80;;;;;;;19.71;61.43;100640.48;1748378;79;21026;-64
2021/08/09 00:16:52;;;;;;;10.38;6.85;;;;;;;19.72;61.27;100639.48;1756142;80;21077;-64
2021/08/09 00:19:20;;;;;;;9.65;6.30;;;;;;;19.67;61.02;100636.52;1756141;79;21047;-64
2021/08/09 00:21:46;;;;;;;8.83;6.08;;;;;;;19.62;61.31;100637.03;1756697;80;21106;-65
2021/08/09 00:24:14;;;;;;;9.30;6.22;;;;;;;19.57;61.56;100623.87;1754843;79;20948;-64
2021/08/09 00:26:41;;;;;;;8.45;6.30;;;;;;;19.52;61.88;100631.58;1755110;79;20952;-64
2021/08/09 00:29:09;;;;;;;9.23;6.25;;;;;;;19.47;62.08;100633.46;1750411;80;21365;-64
2021/08/09 00:31:38;;;;;;;8.73;6.10;;;;;;;19.43;62.44;100630.31;1757486;80;20979;-64
2021/08/09 00:34:06;;;;;;;8.18;6.03;;;;;;;19.38;62.83;100634.49;1760400;79;20987;-64
2021/08/09 00:36:32;;;;;;;11.18;6.17;;;;;;;19.37;63.12;100631.00;1754774;79;21175;-64
2021/08/09 00:38:59;;;;;;;9.40;5.60;;;;;;;19.40;63.15;100628.47;1747869;79;21012;-65
2021/08/09 00:41:26;;;;;;;9.85;5.92;;;;;;;19.44;63.11;100623.95;1759224;79;21058;-64
2021/08/09 00:43:53;;;;;;;8.88;6.50;;;;;;;19.47;63.04;100619.60;1752346;79;21071;-64
2021/08/09 00:46:20;;;;;;;8.13;5.80;;;;;;;19.46;63.35;100618.44;1721882;82;21127;-64
2021/08/09 00:48:48;;;;;;;11.50;6.00;;;;;;;19.41;63.52;100612.80;1753862;80;21047;-64
2021/08/09 00:51:15;;;;;;;9.28;5.95;;;;;;;19.38;63.21;100609.97;1757096;79;21586;-64
2021/08/09 00:53:43;;;;;;;9.03;5.80;;;;;;;19.33;62.93;100607.50;1752529;79;22313;-64
2021/08/09 00:56:10;;;;;;;11.12;6.33;;;;;;;19.28;62.62;100607.53;1744285;79;21439;-64
2021/08/09 00:58:37;;;;;;;8.60;5.92;;;;;;;19.25;62.11;100607.88;1737912;79;21102;-64
2021/08/09 01:01:04;;;;;;;8.55;6.53;;;;;;;19.19;61.75;100603.23;1745205;80;21059;-64
2021/08/09 01:03:32;;;;;;;8.35;6.17;;;;;;;19.14;61.93;100614.11;1754554;79;21043;-64
2021/08/09 01:05:58;;;;;;;8.48;5.75;;;;;;;19.10;62.02;100619.78;1703221;82;21470;-64
2021/08/09 01:08:43;;;;;;;9.20;5.33;;;;;;;19.06;62.14;100623.81;1757872;79;21031;-64
2021/08/09 01:11:16;;;;;;;9.28;5.78;;;;;;;19.05;62.21;100622.13;1753829;79;21097;-65
2021/08/09 01:14:21;;;;;;;10.90;5.97;;;;;;;19.07;62.41;100624.12;1751857;80;21068;-65
2021/08/09 01:16:50;;;;;;;10.20;6.10;;;;;;;19.12;62.33;100615.61;1745609;80;21066;-64
2021/08/09 01:19:35;;;;;;;9.43;6.12;;;;;;;19.16;62.80;100612.91;1753990;79;21110;-65
2021/08/09 01:22:31;;;;;;;9.18;6.28;;;;;;;19.18;62.64;100613.59;1695699;82;21063;-64
2021/08/09 01:25:24;;;;;;;10.43;7.30;;;;;;;19.20;62.58;100617.39;1693349;82;21086;-64
2021/08/09 01:27:52;;;;;;;13.18;6.53;;;;;;;19.21;62.32;100611.06;1753686;79;21664;-65
2021/08/09 01:30:20;;;;;;;12.90;6.28;;;;;;;19.18;62.20;100612.73;1737618;80;21062;-63
2021/08/09 01:32:48;;;;;;;7.83;5.67;;;;;;;19.16;62.20;100612.09;1749369;79;21142;-64
2021/08/09 01:35:17;;;;;;;8.15;6.17;;;;;;;19.15;62.52;100609.08;1743060;80;21098;-64
2021/08/09 01:37:49;;;;;;;10.55;5.97;;;;;;;19.12;63.28;100604.94;1750326;79;21066;-64
2021/08/09 01:40:16;;;;;;;8.78;6.30;;;;;;;19.07;63.61;100606.78;1745393;80;21062;-64
2021/08/09 01:42:45;;;;;;;9.35;5.92;;;;;;;19.07;63.60;100609.45;1751904;79;21099;-65
2021/08/09 01:45:14;;;;;;;10.03;5.42;;;;;;;19.10;63.58;100604.29;1754304;79;21047;-64
2021/08/09 01:47:42;;;;;;;10.50;6.80;;;;;;;19.12;63.71;100608.42;1752811;80;21570;-64
2021/08/09 01:50:11;;;;;;;9.28;5.90;;;;;;;19.12;63.81;100610.27;1709318;80;21530;-64
2021/08/09 01:52:39;;;;;;;11.80;6.25;;;;;;;19.10;63.82;100614.44;1751365;79;21031;-64
2021/08/09 01:55:07;;;;;;;9.18;6.30;;;;;;;19.11;63.83;100612.12;1749004;79;21122;-65
2021/08/09 01:57:34;;;;;;;9.80;5.85;;;;;;;19.08;64.09;100615.12;1722721;80;21866;-64
2021/08/09 02:00:02;;;;;;;9.50;6.53;;;;;;;19.05;64.16;100611.47;1744894;79;21035;-64
2021/08/09 02:02:31;;;;;;;8.40;5.83;;;;;;;19.04;64.18;100616.97;1749157;80;21115;-64
2021/08/09 02:05:11;;;;;;;9.05;6.40;;;;;;;19.01;64.02;100622.64;1738399;80;21423;-64
2021/08/09 02:07:45;;;;;;;7.80;5.60;;;;;;;18.96;63.89;100621.81;1734186;80;21117;-65
2021/08/09 02:10:15;;;;;;;9.95;5.85;;;;;;;18.96;63.93;100622.33;1755279;79;21099;-65
2021/08/09 02:13:14;;;;;;;8.58;5.65;;;;;;;18.98;63.92;100621.65;1754355;79;21526;-64
2021/08/09 02:15:59;;;;;;;11.20;6.67;;;;;;;18.99;64.36;100622.81;1755295;79;21044;-65
2021/08/09 02:18:59;;;;;;;10.70;6.30;;;;;;;18.98;64.65;100619.84;1678771;81;21056;-65
2021/08/09 02:21:31;;;;;;;10.30;6.62;;;;;;;18.97;64.83;100618.67;1741027;79;21118;-65
2021/08/09 02:24:03;;;;;;;10.70;6.78;;;;;;;18.92;64.92;100617.33;1757505;79;21099;-65
2021/08/09 02:26:35;;;;;;;8.90;6.12;;;;;;;18.89;65.01;100615.01;1753417;80;21050;-64
2021/08/09 02:29:15;;;;;;;9.28;5.95;;;;;;;18.88;65.12;100616.54;1755915;79;21097;-65
2021/08/09 02:31:44;;;;;;;9.75;6.30;;;;;;;18.84;65.16;100612.02;1752827;80;21546;-66
2021/08/09 02:34:11;;;;;;;9.68;6.45;;;;;;;18.85;65.20;100610.22;1694895;82;21548;-65
2021/08/09 02:36:38;;;;;;;8.48;5.45;;;;;;;18.90;65.14;100609.20;1699430;82;21066;-65
2021/08/09 02:39:05;;;;;;;9.18;6.20;;;;;;;18.96;64.94;100619.16;1690587;82;21604;-65
2021/08/09 02:41:32;;;;;;;8.65;6.45;;;;;;;19.01;64.65;100617.31;1679540;83;21078;-63
2021/08/09 02:43:59;;;;;;;8.90;6.85;;;;;;;19.00;64.61;100623.16;1745848;79;21083;-64
2021/08/09 02:46:26;;;;;;;10.23;6.10;;;;;;;18.96;64.66;100627.15;1743471;79;21109;-65
2021/08/09 02:48:52;;;;;;;9.60;6.72;;;;;;;18.92;64.75;100629.84;1751294;79;21130;-65
2021/08/09 02:51:19;;;;;;;8.95;6.53;;;;;;;18.87;64.90;100623.69;1747418;80;21406;-65
2021/08/09 02:53:48;;;;;;;8.93;7.08;;;;;;;18.84;65.12;100630.69;1758335;79;21083;-64
2021/08/09 02:56:15;;;;;;;7.80;5.83;;;;;;;18.82;65.24;100631.34;1748714;79;21118;-65
2021/08/09 02:58:43;;;;;;;7.87;5.42;;;;;;;18.85;65.26;100626.20;1754015;79;20988;-65
2021/08/09 03:01:10;;;;;;;7.67;6.12;;;;;;;18.91;65.18;100628.17;1756866;79;21127;-60
2021/08/09 03:03:36;;;;;;;8.83;5.92;;;;;;;18.95;65.17;100630.84;1738968;80;21103;-59
2021/08/09 03:06:04;;;;;;;10.25;6.12;;;;;;;18.98;65.08;100629.17;1751256;79;21024;-57
2021/08/09 03:08:30;;;;;;;9.58;6.05;;;;;;;18.96;65.03;100631.15;1708940;80;21097;-57
2021/08/09 03:10:57;;;;;;;8.75;6.17;;;;;;;18.96;65.09;100634.33;1748991;80;21570;-64
2021/08/09 03:13:25;;;;;;;8.60;6.53;;;;;;;18.95;65.12;100640.17;1739082;79;21127;-64
2021/08/09 03:15:52;;;;;;;9.83;5.45;;;;;;;18.94;65.20;100643.31;1737246;80;21094;-63
2021/08/09 03:18:19;;;;;;;8.83;6.42;;;;;;;18.91;65.50;100634.84;1754988;79;21522;-61
2021/08/09 03:20:46;;;;;;;8.88;6.70;;;;;;;18.89;65.77;100636.84;1755996;79;21063;-61
2021/08/09 03:23:13;;;;;;;10.55;6.55;;;;;;;18.92;65.83;100643.17;1754621;80;21046;-61
2021/08/09 03:25:40;;;;;;;9.40;6.37;;;;;;;18.96;65.85;100643.66;1760921;79;21150;-61
2021/08/09 03:28:07;;;;;;;7.97;5.80;;;;;;;18.97;65.98;100644.83;1751464;79;21036;-62
2021/08/09 03:30:33;;;;;;;10.93;6.33;;;;;;;19.00;66.16;100647.16;1739891;80;21527;-64
2021/08/09 03:33:00;;;;;;;8.78;5.72;;;;;;;19.02;66.17;100650.47;1757422;79;22492;-62
2021/08/09 03:35:28;;;;;;;9.00;6.05;;;;;;;19.05;66.07;100646.13;1756956;79;21074;-63
2021/08/09 03:37:54;;;;;;;10.50;6.37;;;;;;;19.08;65.82;100644.46;1753678;79;22059;-60
2021/08/09 03:40:21;;;;;;;8.85;6.00;;;;;;;19.10;65.22;100645.11;1754821;80;21110;-62
2021/08/09 03:42:47;;;;;;;10.55;6.67;;;;;;;19.08;64.93;100648.47;1754046;79;21042;-62
2021/08/09 03:45:14;;;;;;;10.20;6.37;;;;;;;19.15;65.07;100665.09;1756103;80;21107;-63
2021/08/09 03:47:41;;;;;;;12.07;6.62;;;;;;;19.23;65.15;100666.40;1750540;79;21054;-67
2021/08/09 03:50:09;;;;;;;10.10;6.30;;;;;;;19.29;65.16;100661.72;1746980;80;21133;-68
2021/08/09 03:52:35;;;;;;;8.85;7.05;;;;;;;19.33;65.00;100659.02;1753407;79;21521;-67
2021/08/09 03:55:02;;;;;;;11.30;6.78;;;;;;;19.37;64.87;100664.35;1746498;80;21075;-67
2021/08/09 03:57:29;;;;;;;7.85;5.67;;;;;;;19.39;64.85;100654.33;1750791;79;21063;-68
2021/08/09 03:59:57;;;;;;;9.73;6.85;;;;;;;19.43;64.72;100649.47;1751221;80;21442;-66
2021/08/09 04:02:29;;;;;;;8.73;6.33;;;;;;;19.46;64.53;100647.28;1755010;79;21106;-65
2021/08/09 04:04:52;;;;;;;10.35;6.92;;;;;;;19.46;64.33;100648.62;1753674;79;21106;-67
2021/08/09 04:07:19;;;;;;;10.23;7.03;;;;;;;19.48;64.30;100641.77;1698759;82;22318;-66
2021/08/09 04:09:47;;;;;;;8.90;6.42;;;;;;;19.54;64.19;100633.59;1756472;79;21084;-67
2021/08/09 04:12:14;;;;;;;8.58;5.65;;;;;;;19.66;64.23;100638.84;1748742;79;21078;-68
2021/08/09 04:14:40;;;;;;;11.50;6.35;;;;;;;19.77;64.15;100643.82;1750937;79;21109;-68
2021/08/09 04:17:07;;;;;;;10.28;6.80;;;;;;;19.85;63.95;100650.45;1752124;79;21137;-68
2021/08/09 04:19:35;;;;;;;10.93;6.85;;;;;;;19.91;63.52;100653.41;1701925;82;21529;-66
2021/08/09 04:22:03;;;;;;;10.32;7.65;;;;;;;19.95;63.46;100648.03;1761314;79;21106;-66
2021/08/09 04:24:30;;;;;;;9.23;6.45;;;;;;;19.98;63.46;100646.34;1696314;82;21074;-67
2021/08/09 04:26:57;;;;;;;9.08;7.08;;;;;;;20.05;63.37;100652.62;1756951;80;21130;-67
2021/08/09 04:29:23;;;;;;;8.80;6.42;;;;;;;20.09;63.59;100648.61;1750667;79;21074;-68
2021/08/09 04:31:50;;;;;;;9.18;6.78;;;;;;;20.18;63.21;100645.36;1758796;79;21130;-67
2021/08/09 04:34:17;;;;;;;9.08;7.47;;;;;;;20.30;63.03;100641.76;1753964;79;21069;-68
2021/08/09 04:36:43;;;;;;;9.23;7.17;;;;;;;20.39;62.86;100641.51;1690670;82;21137;-66
2021/08/09 04:39:10;;;;;;;12.65;6.65;;;;;;;20.45;62.97;100650.63;1690132;82;21129;-67
2021/08/09 04:41:36;;;;;;;8.88;6.87;;;;;;;20.51;62.80;100649.06;1753576;79;21091;-69
2021/08/09 04:44:05;;;;;;;12.88;7.72;;;;;;;20.56;62.77;100656.89;1752622;80;21304;-67
2021/08/09 04:46:32;;;;;;;11.15;7.50;;;;;;;20.60;62.83;100658.17;1753914;79;21122;-66
2021/08/09 04:48:59;;;;;;;10.95;7.12;;;;;;;20.67;62.78;100661.49;1750040;79;21106;-68
2021/08/09 04:51:27;;;;;;;10.32;7.20;;;;;;;20.73;62.86;100664.27;1753606;79;21044;-66
2021/08/09 04:53:53;;;;;;;10.65;7.53;;;;;;;20.76;62.90;100662.57;1756354;79;21027;-67
2021/08/09 04:56:20;;;;;;;11.05;7.42;;;;;;;20.86;63.00;100665.47;1757052;79;21051;-67
2021/08/09 04:58:47;;;;;;;10.95;6.65;;;;;;;20.99;62.80;100668.33;1750440;79;21643;-66
2021/08/09 05:01:14;;;;;;;11.40;7.85;;;;;;;21.12;62.76;100670.38;1759571;79;21070;-66
2021/08/09 05:03:41;;;;;;;12.15;7.42;;;;;;;21.23;62.58;100664.56;1751727;79;22804;-67
2021/08/09 05:06:10;;;;;;;10.38;6.92;;;;;;;21.31;62.41;100670.30;1748348;79;21577;-69
2021/08/09 05:08:38;;;;;;;10.95;7.30;;;;;;;21.38;62.41;100674.41;1750960;79;21044;-63
2021/08/09 05:11:05;;;;;;;10.95;7.95;;;;;;;21.43;62.15;100676.01;1759656;80;21336;-63
2021/08/09 05:13:33;;;;;;;10.75;7.17;;;;;;;21.48;61.72;100678.47;1746616;80;21117;-63
2021/08/09 05:15:59;;;;;;;11.43;6.70;;;;;;;21.55;61.89;100671.03;1746195;81;21085;-63
2021/08/09 05:18:26;;;;;;;9.80;6.80;;;;;;;21.59;61.79;100666.98;1751567;79;21660;-63
2021/08/09 05:20:52;;;;;;;9.90;6.53;;;;;;;21.68;61.59;100669.33;1751946;79;21058;-62
2021/08/09 05:23:18;;;;;;;10.38;6.22;;;;;;;21.79;61.46;100672.56;1751252;79;21074;-63
2021/08/09 05:25:45;;;;;;;10.58;7.55;;;;;;;21.91;60.14;100669.69;1748025;80;21557;-66
2021/08/09 05:28:11;;;;;;;10.80;6.53;;;;;;;22.02;60.07;100670.53;1743012;79;21179;-68
2021/08/09 05:30:38;;;;;;;11.03;6.03;;;;;;;22.08;60.16;100670.27;1733455;80;21168;-68
2021/08/09 05:33:05;;;;;;;10.40;6.60;;;;;;;22.13;59.36;100667.02;1753894;80;21067;-67
2021/08/09 05:35:31;;;;;;;9.60;6.12;;;;;;;22.15;59.09;100662.30;1755307;79;21086;-66
2021/08/09 05:38:00;;;;;;;9.45;5.72;;;;;;;22.18;58.84;100676.66;1749228;79;21078;-67
2021/08/09 05:40:28;;;;;;;10.32;6.28;;;;;;;22.21;58.51;100677.61;1758047;79;21185;-66
2021/08/09 05:42:55;;;;;;;8.18;5.90;;;;;;;22.23;58.56;100671.55;1744780;79;21496;-66
2021/08/09 05:45:22;;;;;;;8.53;6.33;;;;;;;22.25;58.85;100673.52;1750459;79;21047;-66
2021/08/09 05:47:50;;;;;;;9.15;6.50;;;;;;;22.36;59.43;100673.03;1750294;79;21075;-68
2021/08/09 05:50:17;;;;;;;7.67;5.00;;;;;;;22.50;59.87;100663.76;1758796;79;22176;-67
2021/08/09 05:52:46;;;;;;;7.55;5.58;;;;;;;22.60;59.77;100658.36;1744917;79;21155;-67
2021/08/09 05:55:13;;;;;;;8.65;5.87;;;;;;;22.68;59.07;100665.44;1735438;80;21047;-63
2021/08/09 05:57:40;;;;;;;9.78;7.28;;;;;;;22.75;59.23;100666.83;1747817;80;20995;-61
2021/08/09 06:00:11;;;;;;;10.32;6.37;;;;;;;22.80;59.92;100662.52;1753381;79;21549;-62
2021/08/09 06:02:45;;;;;;;10.15;6.40;;;;;;;22.86;59.85;100661.41;1758188;79;21082;-63
2021/08/09 06:05:16;;;;;;;10.48;6.30;;;;;;;22.89;59.81;100671.23;1750747;79;21862;-61
2021/08/09 06:07:44;;;;;;;8.00;6.05;;;;;;;22.94;59.44;100676.84;1754202;79;21593;-59
2021/08/09 06:10:11;;;;;;;8.98;5.85;;;;;;;22.99;59.21;100678.41;1758017;80;21361;-58
2021/08/09 06:12:38;;;;;;;7.00;5.67;;;;;;;23.10;59.15;100680.26;1730994;79;21031;-61
2021/08/09 06:15:08;;;;;;;6.83;5.22;;;;;;;23.24;58.92;100682.52;1712618;81;21074;-61
2021/08/09 06:17:38;;;;;;;8.70;6.15;;;;;;;23.33;58.05;100684.84;1711572;81;21439;-61
2021/08/09 06:20:07;;;;;;;8.18;5.37;;;;;;;23.39;57.80;100681.86;1710355;81;21075;-61
2021/08/09 06:22:35;;;;;;;9.00;4.47;;;;;;;23.45;58.42;100678.39;1708813;81;21102;-61
2021/08/09 06:25:02;;;;;;;8.03;4.97;;;;;;;23.49;57.56;100675.59;1716366;81;21337;-62
2021/08/09 06:27:29;;;;;;;5.80;4.10;;;;;;;23.51;56.18;100670.84;1714749;81;21118;-63
2021/08/09 06:29:57;;;;;;;8.25;5.20;;;;;;;23.53;56.65;100676.84;1711029;81;22459;-62
2021/08/09 06:32:24;;;;;;;6.78;4.87;;;;;;;23.55;56.03;100681.52;1710117;81;21083;-63
2021/08/09 06:34:51;;;;;;;7.70;4.70;;;;;;;23.58;56.37;100689.67;1710008;81;21107;-62
2021/08/09 06:37:18;;;;;;;7.12;5.47;;;;;;;23.61;56.12;100692.48;1640834;84;22583;-62
2021/08/09 06:39:44;;;;;;;6.58;4.28;;;;;;;23.64;56.02;100690.75;1704929;82;21102;-61
2021/08/09 06:42:14;;;;;;;6.95;4.25;;;;;;;23.70;56.19;100685.89;1711102;81;21087;-63
2021/08/09 06:44:42;;;;;;;6.67;4.33;;;;;;;23.75;56.03;100678.05;1704188;81;21079;-61
2021/08/09 06:47:09;;;;;;;6.37;4.08;;;;;;;23.80;55.57;100681.48;1691783;82;21125;-62
2021/08/09 06:49:36;;;;;;;7.30;4.80;;;;;;;23.83;55.21;100684.62;1705761;81;22292;-60
2021/08/09 06:52:04;;;;;;;7.62;4.25;;;;;;;23.88;55.06;100687.52;1714192;81;21063;-62
2021/08/09 06:54:32;;;;;;;6.97;4.67;;;;;;;23.97;55.14;100688.67;1705781;81;21091;-63
2021/08/09 06:57:00;;;;;;;6.67;4.33;;;;;;;24.05;55.16;100685.80;1707687;81;21323;-61
2021/08/09 06:59:26;;;;;;;6.10;3.87;;;;;;;24.09;54.29;100687.03;1704042;81;21059;-61
2021/08/09 07:01:53;;;;;;;5.28;3.70;;;;;;;24.14;54.57;100685.94;1649334;84;21128;-60
2021/08/09 07:04:21;;;;;;;6.65;4.35;;;;;;;24.19;54.27;100683.45;1702329;81;21115;-61
2021/08/09 07:06:49;;;;;;;6.83;4.12;;;;;;;24.25;54.45;100678.58;1705341;81;21141;-61
2021/08/09 07:09:18;;;;;;;10.15;4.53;;;;;;;24.37;54.42;100673.94;1706572;81;21667;-63
2021/08/09 07:11:45;;;;;;;5.75;4.40;;;;;;;24.53;54.31;100680.25;1710836;81;21012;-60
2021/08/09 07:14:13;;;;;;;7.53;4.85;;;;;;;24.68;54.21;100670.65;1697395;81;21996;-61
2021/08/09 07:16:40;;;;;;;8.83;4.75;;;;;;;24.74;53.20;100668.45;1728873;81;21604;-61
2021/08/09 07:19:07;;;;;;;6.55;4.15;;;;;;;24.80;53.54;100665.45;1733942;80;21202;-62
2021/08/09 07:21:35;;;;;;;8.73;5.15;;;;;;;24.87;53.32;100668.13;1765950;79;21070;-62
2021/08/09 07:24:02;;;;;;;8.40;4.42;;;;;;;24.92;53.26;100669.14;1750664;79;21071;-62
2021/08/09 07:26:30;;;;;;;6.25;4.80;;;;;;;24.97;52.59;100672.03;1752099;79;20993;-61
2021/08/09 07:28:59;;;;;;;6.87;4.47;;;;;;;25.00;52.59;100671.61;1754497;79;21043;-60
2021/08/09 07:31:27;;;;;;;7.62;4.62;;;;;;;25.02;52.23;100664.67;1750175;79;22325;-61
2021/08/09 07:33:54;;;;;;;8.25;5.30;;;;;;;25.04;51.80;100668.80;1749545;79;21044;-60
2021/08/09 07:36:21;;;;;;;7.65;3.92;;;;;;;25.09;51.68;100669.52;1761045;79;21098;-62
2021/08/09 07:38:47;;;;;;;6.70;3.70;;;;;;;25.13;52.01;100678.84;1750042;79;21122;-62
2021/08/09 07:41:15;;;;;;;6.75;4.28;;;;;;;25.19;51.36;100677.15;1696929;82;21115;-61
2021/08/09 07:43:45;;;;;;;7.97;5.28;;;;;;;25.23;51.40;100670.29;1753633;79;21110;-63
2021/08/09 07:46:13;;;;;;;7.10;4.78;;;;;;;25.31;50.65;100670.08;1756417;79;21004;-61
2021/08/09 07:48:41;;;;;;;7.00;4.65;;;;;;;25.35;50.47;100666.44;1761499;80;21019;-61
2021/08/09 07:51:10;;;;;;;6.17;4.22;;;;;;;25.39;50.23;100667.16;1751296;79;21190;-61
2021/08/09 07:53:36;;;;;;;7.97;4.50;;;;;;;25.47;50.39;100663.90;1739501;80;21079;-63
2021/08/09 07:56:04;;;;;;;6.28;4.75;;;;;;;25.54;50.28;100660.14;1750691;79;21051;-62
2021/08/09 07:58:31;;;;;;;6.08;4.25;;;;;;;25.60;49.39;100659.80;1742962;80;21126;-61
2021/08/09 08:00:58;;;;;;;5.92;3.87;;;;;;;25.65;49.04;100659.16;1759969;80;21051;-62
2021/08/09 08:03:25;;;;;;;6.65;3.85;;;;;;;25.69;48.71;100659.86;1734862;79;21110;-62
2021/08/09 08:05:52;;;;;;;5.22;3.72;;;;;;;25.75;47.54;100664.36;1755374;79;21164;-62
2021/08/09 08:08:18;;;;;;;6.97;3.45;;;;;;;25.81;47.77;100663.22;1750016;79;21451;-60
2021/08/09 08:10:45;;;;;;;7.08;3.67;;;;;;;25.87;47.03;100656.94;1755015;79;21750;-60
2021/08/09 08:13:11;;;;;;;6.05;4.10;;;;;;;25.93;47.67;100656.91;1756212;80;21119;-61
2021/08/09 08:15:39;;;;;;;5.60;3.25;;;;;;;25.98;47.33;100658.98;1755980;79;21070;-61
2021/08/09 08:18:06;;;;;;;6.00;3.72;;;;;;;26.05;47.26;100652.20;1752761;79;21132;-60
2021/08/09 08:20:33;;;;;;;5.72;3.50;;;;;;;26.14;46.37;100652.22;1753657;79;21098;-63
2021/08/09 08:23:04;;;;;;;6.80;3.00;;;;;;;26.22;46.03;100652.48;1763560;79;21102;-64
2021/08/09 08:25:32;;;;;;;5.20;3.37;;;;;;;26.31;45.50;100651.98;1759900;79;21160;-63
2021/08/09 08:27:59;;;;;;;5.30;2.75;;;;;;;26.42;45.46;100660.41;1757665;79;21746;-63
2021/08/09 08:30:25;;;;;;;5.97;3.80;;;;;;;26.50;44.61;100662.83;1754285;79;21478;-62
2021/08/09 08:32:53;;;;;;;5.72;3.45;;;;;;;26.60;45.26;100663.67;1757074;79;21100;-62
2021/08/09 08:35:20;;;;;;;7.70;3.40;;;;;;;26.67;44.24;100663.11;1753297;79;21054;-59
2021/08/09 08:37:47;;;;;;;5.75;4.15;;;;;;;26.73;43.98;100655.48;1756066;79;21512;-63
2021/08/09 08:40:14;;;;;;;7.25;5.22;;;;;;;26.79;43.61;100657.27;1752319;79;21063;-61
2021/08/09 08:42:46;;;;;;;8.15;4.17;;;;;;;26.84;44.19;100659.30;1768726;80;21051;-60
2021/08/09 08:45:18;;;;;;;7.45;4.17;;;;;;;26.93;43.69;100661.99;1762136;79;21819;-63
2021/08/09 08:47:49;;;;;;;7.85;3.67;;;;;;;26.98;43.41;100660.83;1757586;79;22600;-61
2021/08/09 08:50:18;;;;;;;7.17;4.15;;;;;;;27.03;43.32;100664.17;1754494;80;21129;-65
2021/08/09 08:52:48;;;;;;;6.90;4.12;;;;;;;27.07;42.97;100669.45;1758628;79;21694;-64
2021/08/09 08:55:16;;;;;;;7.60;5.33;;;;;;;27.11;42.22;100666.58;1714772;81;21067;-61
2021/08/09 08:57:45;;;;;;;9.38;5.33;;;;;;;27.15;41.97;100667.80;1703416;82;21087;-62
2021/08/09 09:00:14;;;;;;;6.67;4.75;;;;;;;27.18;41.94;100670.02;1715025;82;21118;-63
2021/08/09 09:02:41;;;;;;;7.15;4.12;;;;;;;27.22;42.11;100663.66;1720961;82;21082;-64
2021/08/09 09:05:14;;;;;;;6.03;3.90;;;;;;;27.25;41.64;100659.98;1758528;79;21728;-65
2021/08/09 09:07:50;;;;;;;7.17;4.30;;;;;;;27.33;41.55;100662.91;1752522;80;21643;-64
2021/08/09 09:10:29;;;;;;;9.28;4.75;;;;;;;27.40;42.03;100658.77;1751830;79;21087;-66
2021/08/09 09:13:13;;;;;;;8.38;4.33;;;;;;;27.49;41.42;100664.18;1751218;80;21181;-64
2021/08/09 09:16:04;;;;;;;7.25;4.30;;;;;;;27.51;41.20;100658.02;1747260;79;21070;-64
2021/08/09 09:18:56;;;;;;;6.40;4.50;;;;;;;27.55;41.06;100663.78;1746376;80;21110;-66
2021/08/09 09:21:31;;;;;;;8.60;4.22;;;;;;;27.62;41.03;100678.02;1743571;81;21037;-65
2021/08/09 09:24:15;;;;;;;7.08;4.03;;;;;;;27.68;40.78;100669.00;1746340;80;21111;-66
2021/08/09 09:26:45;;;;;;;7.17;4.47;;;;;;;27.75;40.67;100663.51;1734043;80;21127;-65
2021/08/09 09:29:14;;;;;;;6.67;3.72;;;;;;;27.80;39.62;100669.05;1746217;80;21056;-64
2021/08/09 09:31:42;;;;;;;7.50;4.25;;;;;;;27.85;39.92;100673.77;1747667;80;21692;-65
2021/08/09 09:34:13;;;;;;;7.20;4.08;;;;;;;27.89;39.40;100673.09;1741827;80;21090;-62
2021/08/09 09:36:56;;;;;;;9.58;4.53;;;;;;;27.95;39.51;100672.71;1748422;81;22550;-62
2021/08/09 09:39:38;;;;;;;8.63;4.10;;;;;;;28.00;39.17;100675.55;1745570;80;21095;-64
2021/08/09 09:42:27;;;;;;;8.40;3.98;;;;;;;28.02;38.89;100676.66;1743952;81;21538;-63
2021/08/09 09:44:55;;;;;;;7.58;4.47;;;;;;;28.05;38.83;100683.78;1740247;80;21095;-64
2021/08/09 09:47:27;;;;;;;8.28;4.28;;;;;;;28.06;38.53;100677.33;1751416;80;21034;-63
2021/08/09 09:49:57;;;;;;;7.03;4.17;;;;;;;28.12;38.36;100678.27;1745978;81;21126;-63
2021/08/09 09:52:36;;;;;;;6.15;4.08;;;;;;;28.18;38.87;100677.36;1742950;80;21066;-62
2021/08/09 09:55:10;;;;;;;7.97;4.75;;;;;;;28.25;38.57;100668.59;1742888;81;21701;-63
2021/08/09 09:57:37;;;;;;;6.80;4.95;;;;;;;28.34;38.65;100666.36;1744053;81;21013;-63
2021/08/09 10:00:12;;;;;;;6.78;4.53;;;;;;;28.39;38.55;100652.14;1746144;81;21156;-62
2021/08/09 10:02:44;;;;;;;5.35;3.80;;;;;;;28.40;38.34;100641.08;1741548;80;21596;-62
2021/08/09 10:05:11;;;;;;;5.65;3.50;;;;;;;28.42;38.77;100638.95;1673377;83;21581;-62
2021/08/09 10:07:38;;;;;;;5.42;3.50;;;;;;;28.47;38.84;100637.72;1739763;81;21078;-63
2021/08/09 10:10:09;;;;;;;5.60;3.60;;;;;;;28.52;38.37;100637.83;1745362;80;21134;-63
2021/08/09 10:12:38;;;;;;;7.10;3.40;;;;;;;28.52;38.14;100635.12;1745373;81;20990;-62
2021/08/09 10:15:06;;;;;;;7.05;3.70;;;;;;;28.56;38.49;100648.23;1753776;79;21129;-62
2021/08/09 10:17:36;;;;;;;5.92;3.83;;;;;;;28.61;38.38;100655.11;1752157;80;21050;-63
2021/08/09 10:20:07;;;;;;;5.70;3.55;;;;;;;28.64;37.99;100648.69;1738328;80;21054;-63
2021/08/09 10:22:35;;;;;;;5.80;3.70;;;;;;;28.69;38.78;100646.09;1748221;79;21542;-62
2021/08/09 10:25:02;;;;;;;7.12;3.05;;;;;;;28.80;37.61;100630.06;1756861;79;21080;-61
2021/08/09 10:27:51;;;;;;;5.12;3.22;;;;;;;28.90;36.64;100631.66;1755720;79;21417;-62
2021/08/09 10:30:21;;;;;;;6.00;3.10;;;;;;;28.92;35.76;100630.89;1756458;79;21460;-64
2021/08/09 10:32:54;;;;;;;5.58;3.20;;;;;;;28.97;35.76;100637.77;1753847;79;21054;-62
2021/08/09 10:35:50;;;;;;;8.40;3.92;;;;;;;29.04;34.79;100645.22;1748984;79;21107;-63
2021/08/09 10:38:23;;;;;;;6.00;3.80;;;;;;;29.12;35.63;100641.83;1753577;79;21106;-63
2021/08/09 10:41:14;;;;;;;5.15;3.27;;;;;;;29.17;35.30;100627.06;1748957;79;21128;-62
2021/08/09 10:44:09;;;;;;;4.80;3.20;;;;;;;29.19;35.16;100625.77;1744924;79;21007;-63
2021/08/09 10:46:43;;;;;;;7.80;3.52;;;;;;;29.25;35.77;100616.69;1750716;79;21068;-64
2021/08/09 10:49:47;;;;;;;6.15;3.27;;;;;;;29.26;35.57;100616.96;1742135;79;21016;-62
2021/08/09 10:52:17;;;;;;;10.13;3.27;;;;;;;29.29;36.00;100617.03;1752461;79;21078;-61
2021/08/09 10:54:43;;;;;;;6.87;3.45;;;;;;;29.29;35.39;100619.73;1657861;82;21528;-63
2021/08/09 10:57:10;;;;;;;6.72;3.10;;;;;;;29.35;35.83;100612.52;1751699;79;22237;-63
2021/08/09 10:59:44;;;;;;;5.92;3.62;;;;;;;29.38;36.03;100608.78;1746231;80;21119;-63
2021/08/09 11:02:18;;;;;;;5.67;3.42;;;;;;;29.44;36.76;100601.05;1751359;79;21139;-63
2021/08/09 11:05:15;;;;;;;5.90;3.83;;;;;;;29.51;36.78;100600.08;1762548;79;21075;-63
2021/08/09 11:07:43;;;;;;;6.53;4.15;;;;;;;29.59;36.82;100603.22;1683188;82;21130;-62
2021/08/09 11:10:11;;;;;;;5.97;3.67;;;;;;;29.64;36.83;100599.78;1758885;79;21020;-62
2021/08/09 11:12:57;;;;;;;5.70;4.00;;;;;;;29.67;36.11;100584.35;1757800;79;21086;-63
2021/08/09 11:15:24;;;;;;;5.33;3.77;;;;;;;29.70;35.83;100587.13;1757693;79;21050;-63
2021/08/09 11:17:58;;;;;;;6.10;3.85;;;;;;;29.71;35.39;100580.64;1750283;80;21012;-63
2021/08/09 11:20:32;;;;;;;6.30;4.30;;;;;;;29.72;35.42;100571.42;1760271;80;21103;-63
2021/08/09 11:23:11;;;;;;;6.67;3.85;;;;;;;29.72;35.46;100566.81;1756500;79;21083;-64
2021/08/09 11:25:48;;;;;;;5.85;3.92;;;;;;;29.75;34.80;100570.94;1757182;79;21051;-63
2021/08/09 11:28:25;;;;;;;5.62;3.45;;;;;;;29.80;34.87;100569.15;1755978;80;21711;-63
2021/08/09 11:30:58;;;;;;;4.92;3.70;;;;;;;29.84;34.21;100561.34;1747222;80;21103;-63
2021/08/09 11:33:36;;;;;;;5.47;3.77;;;;;;;29.92;34.69;100562.28;1758252;79;21772;-61
2021/08/09 11:36:11;;;;;;;7.08;3.90;;;;;;;29.97;34.44;100552.86;1754653;79;21058;-62
2021/08/09 11:38:53;;;;;;;5.62;3.72;;;;;;;30.05;33.53;100552.99;1744765;80;20999;-61